Time;durP1;ratioP1;P1;durP2;ratioP2;P2;SDS_P1;SDS_P2;PMS_P1;PMS_P2;Temp;Humidity;BMP_temperature;BMP_pressure;BME280_temperature;BME280_humidity;BME280_pressure;Samples;Min_cycle;Max_cycle;Signal;HPM_P1;HPM_P2
2022/07/10 00:02:06;;;;;;;;;0.67;0.67;;;;;;;;5090948;27;45377;-73
2022/07/10 00:04:31;;;;;;;;;1.00;1.00;;;;;;;;5091680;27;45425;-74
2022/07/10 00:06:58;;;;;;;;;1.00;1.00;;;;;;;;5092044;27;45440;-73
2022/07/10 00:09:23;;;;;;;;;1.00;1.00;;;;;;;;5091345;27;45416;-74
2022/07/10 00:11:48;;;;;;;;;1.00;1.00;;;;;;;;5094265;27;45583;-73
2022/07/10 00:14:14;;;;;;;;;1.00;1.00;;;;;;;;5093155;27;45489;-73
2022/07/10 00:16:39;;;;;;;;;1.00;1.00;;;;;;;;5091519;27;45667;-73
2022/07/10 00:19:04;;;;;;;;;1.33;1.33;;;;;;;;5093767;27;45448;-73
2022/07/10 00:21:30;;;;;;;;;2.00;2.00;;;;;;;;5092070;27;45418;-73
2022/07/10 00:23:55;;;;;;;;;1.67;1.67;;;;;;;;5093937;27;46437;-74
2022/07/10 00:26:20;;;;;;;;;1.67;1.67;;;;;;;;5098996;27;45564;-74
2022/07/10 00:28:45;;;;;;;;;2.00;1.00;;;;;;;;5102709;27;45378;-73
2022/07/10 00:31:11;;;;;;;;;1.00;1.00;;;;;;;;5102524;27;45534;-74
2022/07/10 00:33:37;;;;;;;;;1.67;1.33;;;;;;;;5106925;27;45340;-73
2022/07/10 00:36:03;;;;;;;;;1.00;1.00;;;;;;;;5095968;27;45520;-73
2022/07/10 00:38:28;;;;;;;;;1.33;1.33;;;;;;;;5097704;27;45267;-74
2022/07/10 00:40:53;;;;;;;;;1.00;1.00;;;;;;;;5095308;27;45531;-73
2022/07/10 00:43:19;;;;;;;;;2.00;2.00;;;;;;;;5095166;27;46627;-73
2022/07/10 00:45:44;;;;;;;;;2.33;1.00;;;;;;;;5097145;27;45252;-73
2022/07/10 00:48:09;;;;;;;;;1.67;1.67;;;;;;;;5095084;27;45262;-74
2022/07/10 00:50:35;;;;;;;;;2.00;2.00;;;;;;;;5098520;27;45320;-73
2022/07/10 00:53:00;;;;;;;;;1.00;1.00;;;;;;;;5094267;27;45418;-73
2022/07/10 00:55:25;;;;;;;;;2.67;2.67;;;;;;;;5094731;27;45267;-74
2022/07/10 00:57:51;;;;;;;;;1.67;1.67;;;;;;;;5094445;27;45437;-73
2022/07/10 01:00:16;;;;;;;;;2.00;2.00;;;;;;;;5094984;27;45341;-74
2022/07/10 01:02:42;;;;;;;;;1.00;1.00;;;;;;;;5097292;27;45364;-73
2022/07/10 01:05:07;;;;;;;;;1.67;1.67;;;;;;;;5095298;27;45284;-74
2022/07/10 01:07:33;;;;;;;;;2.00;2.00;;;;;;;;5094438;27;45855;-73
2022/07/10 01:09:59;;;;;;;;;3.00;1.33;;;;;;;;5094279;27;45377;-73
2022/07/10 01:12:24;;;;;;;;;2.00;2.00;;;;;;;;5094443;27;45575;-73
2022/07/10 01:14:50;;;;;;;;;2.00;1.00;;;;;;;;5095390;27;45902;-73
2022/07/10 01:17:15;;;;;;;;;1.67;1.67;;;;;;;;5095892;27;45443;-73
2022/07/10 01:19:41;;;;;;;;;1.00;1.00;;;;;;;;5094433;27;45333;-73
2022/07/10 01:22:06;;;;;;;;;2.00;2.00;;;;;;;;5095317;27;46392;-74
2022/07/10 01:24:31;;;;;;;;;2.00;2.00;;;;;;;;5094288;27;45477;-73
2022/07/10 01:26:56;;;;;;;;;1.00;1.00;;;;;;;;5095815;27;45342;-74
2022/07/10 01:29:22;;;;;;;;;1.33;1.00;;;;;;;;5109208;27;45511;-73
2022/07/10 01:31:47;;;;;;;;;1.33;1.33;;;;;;;;5100684;27;45476;-73
2022/07/10 01:34:12;;;;;;;;;2.00;2.00;;;;;;;;5100986;27;45643;-73
2022/07/10 01:36:37;;;;;;;;;1.00;1.00;;;;;;;;5093859;27;45567;-73
2022/07/10 01:39:03;;;;;;;;;1.67;1.67;;;;;;;;5094995;27;45662;-73
2022/07/10 01:41:28;;;;;;;;;2.00;2.00;;;;;;;;5096615;27;45503;-74
2022/07/10 01:43:53;;;;;;;;;2.00;2.00;;;;;;;;5093942;27;45415;-73
2022/07/10 01:46:19;;;;;;;;;1.00;1.00;;;;;;;;5095941;27;45420;-74
2022/07/10 01:48:44;;;;;;;;;1.33;1.33;;;;;;;;5093802;27;45468;-73
2022/07/10 01:51:10;;;;;;;;;1.00;1.00;;;;;;;;5095528;27;46177;-74
2022/07/10 01:53:36;;;;;;;;;1.67;1.00;;;;;;;;5098048;27;45476;-74
2022/07/10 01:56:03;;;;;;;;;3.00;2.00;;;;;;;;5093700;27;46072;-73
2022/07/10 01:58:28;;;;;;;;;1.00;1.00;;;;;;;;5093253;27;45413;-74
2022/07/10 02:00:53;;;;;;;;;1.67;1.67;;;;;;;;5093515;27;45457;-73
2022/07/10 02:06:02;;;;;;;;;0.67;0.67;;;;;;;;5094608;27;45295;-73
2022/07/10 02:08:27;;;;;;;;;3.00;3.00;;;;;;;;5096350;27;45355;-74
2022/07/10 02:10:52;;;;;;;;;1.00;1.00;;;;;;;;5093482;27;45579;-73
2022/07/10 02:13:20;;;;;;;;;0.33;0.33;;;;;;;;5093494;27;45455;-74
2022/07/10 02:15:45;;;;;;;;;2.00;1.00;;;;;;;;5093243;27;45417;-74
2022/07/10 02:18:10;;;;;;;;;1.00;1.00;;;;;;;;5093640;27;45309;-74
2022/07/10 02:20:36;;;;;;;;;1.67;1.67;;;;;;;;5097143;27;45492;-73
2022/07/10 02:23:01;;;;;;;;;1.67;1.67;;;;;;;;5093237;27;45263;-73
2022/07/10 02:25:26;;;;;;;;;3.67;2.00;;;;;;;;5093674;27;45424;-73
2022/07/10 02:27:52;;;;;;;;;2.67;2.67;;;;;;;;5093090;27;45427;-74
2022/07/10 02:30:17;;;;;;;;;3.00;1.33;;;;;;;;5108374;27;46326;-73
2022/07/10 02:32:42;;;;;;;;;2.67;2.67;;;;;;;;5108137;27;45298;-72
2022/07/10 02:35:07;;;;;;;;;2.00;2.00;;;;;;;;5093422;27;45514;-72
2022/07/10 02:37:33;;;;;;;;;2.00;2.00;;;;;;;;5093288;27;45264;-71
2022/07/10 02:39:58;;;;;;;;;1.00;1.00;;;;;;;;5093037;27;47919;-71
2022/07/10 02:42:23;;;;;;;;;4.00;3.00;;;;;;;;5092919;27;45382;-72
2022/07/10 02:44:49;;;;;;;;;2.33;2.33;;;;;;;;5095717;27;45337;-72
2022/07/10 02:47:14;;;;;;;;;2.00;2.00;;;;;;;;5093113;27;45342;-72
2022/07/10 02:49:39;;;;;;;;;3.00;2.00;;;;;;;;5092255;27;45421;-71
2022/07/10 02:52:04;;;;;;;;;3.00;2.33;;;;;;;;5092849;27;45283;-68
2022/07/10 02:54:30;;;;;;;;;2.00;2.00;;;;;;;;5092649;27;45374;-70
2022/07/10 02:56:55;;;;;;;;;1.33;1.33;;;;;;;;5094953;27;45245;-70
2022/07/10 02:59:20;;;;;;;;;1.00;1.00;;;;;;;;5094033;27;45249;-70
2022/07/10 03:01:46;;;;;;;;;3.00;1.67;;;;;;;;5092526;27;45282;-70
2022/07/10 03:04:11;;;;;;;;;3.00;3.00;;;;;;;;5092743;27;45197;-70
2022/07/10 03:06:36;;;;;;;;;3.00;2.00;;;;;;;;5089112;27;45499;-70
2022/07/10 03:09:02;;;;;;;;;1.00;1.00;;;;;;;;5092800;27;46028;-70
2022/07/10 03:11:27;;;;;;;;;3.33;2.00;;;;;;;;5096230;27;45461;-70
2022/07/10 03:13:52;;;;;;;;;2.00;2.00;;;;;;;;5092420;27;45536;-70
2022/07/10 03:16:17;;;;;;;;;1.67;1.00;;;;;;;;5092736;27;45289;-70
2022/07/10 03:18:43;;;;;;;;;1.33;1.33;;;;;;;;5091774;27;45479;-68
2022/07/10 03:21:08;;;;;;;;;3.00;3.00;;;;;;;;5092666;27;45362;-68
2022/07/10 03:23:33;;;;;;;;;1.00;1.00;;;;;;;;5096102;27;45423;-68
2022/07/10 03:25:58;;;;;;;;;1.00;1.00;;;;;;;;5093632;27;45483;-68
2022/07/10 03:28:23;;;;;;;;;2.00;1.00;;;;;;;;5096015;27;46277;-69
2022/07/10 03:30:49;;;;;;;;;1.33;1.33;;;;;;;;5102709;27;45767;-68
2022/07/10 03:33:14;;;;;;;;;3.67;2.00;;;;;;;;5105545;27;45488;-68
2022/07/10 03:35:39;;;;;;;;;2.00;2.00;;;;;;;;5095643;27;45421;-68
2022/07/10 03:38:05;;;;;;;;;1.67;1.67;;;;;;;;5093743;27;46619;-68
2022/07/10 03:40:30;;;;;;;;;4.00;3.00;;;;;;;;5091778;27;45582;-68
2022/07/10 03:42:55;;;;;;;;;2.00;2.00;;;;;;;;5092394;27;45536;-68
2022/07/10 03:45:20;;;;;;;;;3.00;3.00;;;;;;;;5092036;27;45512;-68
2022/07/10 03:47:46;;;;;;;;;2.00;2.00;;;;;;;;5093646;27;46390;-68
2022/07/10 03:50:11;;;;;;;;;1.33;1.33;;;;;;;;5093046;27;45400;-68
2022/07/10 03:52:36;;;;;;;;;2.00;2.00;;;;;;;;5091916;27;45480;-68
2022/07/10 03:55:02;;;;;;;;;3.67;1.33;;;;;;;;5092320;27;45500;-68
2022/07/10 04:00:11;;;;;;;;;2.00;2.00;;;;;;;;5086758;27;45550;-68
2022/07/10 04:02:36;;;;;;;;;1.33;1.33;;;;;;;;5095394;27;45512;-69
2022/07/10 04:05:05;;;;;;;;;2.00;2.00;;;;;;;;5091611;27;45523;-69
2022/07/10 04:07:30;;;;;;;;;1.67;1.67;;;;;;;;5091488;27;45423;-69
2022/07/10 04:09:56;;;;;;;;;3.33;2.67;;;;;;;;5091436;27;45503;-69
2022/07/10 04:12:21;;;;;;;;;1.00;1.00;;;;;;;;5091433;27;45761;-69
2022/07/10 04:14:48;;;;;;;;;3.00;3.00;;;;;;;;5094209;27;45543;-69
2022/07/10 04:17:13;;;;;;;;;2.00;2.00;;;;;;;;5092670;27;46904;-69
2022/07/10 04:19:39;;;;;;;;;2.33;2.33;;;;;;;;5091312;27;45387;-69
2022/07/10 04:22:04;;;;;;;;;5.00;2.00;;;;;;;;5091719;27;45464;-69
2022/07/10 04:24:29;;;;;;;;;4.25;3.00;;;;;;;;5091438;27;45407;-69
2022/07/10 04:26:54;;;;;;;;;2.75;2.75;;;;;;;;5093567;27;45927;-69
2022/07/10 04:29:20;;;;;;;;;3.25;2.25;;;;;;;;5105014;27;45347;-69
2022/07/10 04:31:45;;;;;;;;;2.33;2.33;;;;;;;;5098202;27;45666;-69
2022/07/10 04:34:10;;;;;;;;;3.00;3.00;;;;;;;;5099254;27;45484;-68
2022/07/10 04:36:35;;;;;;;;;4.00;4.00;;;;;;;;5091308;27;45539;-69
2022/07/10 04:39:00;;;;;;;;;2.25;2.25;;;;;;;;5092552;27;45465;-69
2022/07/10 04:41:26;;;;;;;;;3.00;3.00;;;;;;;;5093737;27;45338;-69
2022/07/10 04:43:51;;;;;;;;;3.00;2.00;;;;;;;;5090667;27;45496;-69
2022/07/10 04:46:16;;;;;;;;;4.00;3.00;;;;;;;;5091254;27;46327;-69
2022/07/10 04:48:41;;;;;;;;;2.00;2.00;;;;;;;;5091403;27;45514;-68
2022/07/10 04:51:06;;;;;;;;;4.67;3.00;;;;;;;;5091285;27;45274;-69
2022/07/10 04:53:32;;;;;;;;;2.00;2.00;;;;;;;;5094544;27;45546;-68
2022/07/10 04:55:58;;;;;;;;;2.00;1.00;;;;;;;;5090729;27;45487;-68
2022/07/10 04:58:23;;;;;;;;;4.67;2.33;;;;;;;;5090166;27;45474;-68
2022/07/10 05:00:48;;;;;;;;;2.00;1.33;;;;;;;;5091115;27;45372;-69
2022/07/10 05:03:15;;;;;;;;;2.00;2.00;;;;;;;;5091064;27;45259;-69
2022/07/10 05:05:40;;;;;;;;;2.00;2.00;;;;;;;;5094173;27;46405;-69
2022/07/10 05:08:06;;;;;;;;;2.00;2.00;;;;;;;;5090952;27;45416;-68
2022/07/10 05:10:31;;;;;;;;;2.67;2.67;;;;;;;;5092587;27;45433;-69
2022/07/10 05:12:56;;;;;;;;;3.00;3.00;;;;;;;;5094180;27;45281;-69
2022/07/10 05:15:22;;;;;;;;;2.00;2.00;;;;;;;;5094367;27;46011;-68
2022/07/10 05:17:47;;;;;;;;;2.00;2.00;;;;;;;;5096696;27;45382;-68
2022/07/10 05:20:12;;;;;;;;;2.50;1.25;;;;;;;;5095824;27;45337;-69
2022/07/10 05:22:38;;;;;;;;;3.50;2.00;;;;;;;;5094175;27;45929;-69
2022/07/10 05:25:03;;;;;;;;;2.00;2.00;;;;;;;;5094149;27;45476;-69
2022/07/10 05:27:28;;;;;;;;;3.00;2.75;;;;;;;;5093330;27;45388;-70
2022/07/10 05:29:53;;;;;;;;;1.50;1.50;;;;;;;;5111394;27;45511;-69
2022/07/10 05:32:19;;;;;;;;;2.00;2.00;;;;;;;;5105207;27;45470;-69
2022/07/10 05:34:44;;;;;;;;;2.00;2.00;;;;;;;;5096623;27;45538;-69
2022/07/10 05:37:09;;;;;;;;;2.00;2.00;;;;;;;;5093458;27;51121;-69
2022/07/10 05:39:35;;;;;;;;;2.00;2.00;;;;;;;;5093893;27;45368;-68
2022/07/10 05:42:00;;;;;;;;;2.50;2.50;;;;;;;;5094519;27;45389;-69
2022/07/10 05:44:25;;;;;;;;;4.33;3.00;;;;;;;;5095960;27;45400;-69
2022/07/10 05:46:50;;;;;;;;;2.00;2.00;;;;;;;;5093926;27;45526;-69
2022/07/10 05:49:15;;;;;;;;;4.00;3.00;;;;;;;;5093556;27;45453;-69
2022/07/10 05:51:41;;;;;;;;;4.67;2.00;;;;;;;;5093987;27;45592;-69
2022/07/10 05:54:06;;;;;;;;;2.75;2.75;;;;;;;;5094324;27;45451;-68
2022/07/10 05:56:31;;;;;;;;;2.00;2.00;;;;;;;;5096244;27;45761;-69
2022/07/10 05:58:56;;;;;;;;;3.00;2.00;;;;;;;;5093467;27;46889;-69
2022/07/10 06:01:23;;;;;;;;;2.00;2.00;;;;;;;;5093721;27;45457;-69
2022/07/10 06:03:48;;;;;;;;;4.33;2.33;;;;;;;;5093554;27;46966;-69
2022/07/10 06:06:15;;;;;;;;;3.67;1.67;;;;;;;;5093407;27;45494;-69
2022/07/10 06:08:40;;;;;;;;;2.33;2.33;;;;;;;;5097082;27;45484;-69
2022/07/10 06:11:05;;;;;;;;;4.00;2.00;;;;;;;;5092905;27;45369;-69
2022/07/10 06:13:31;;;;;;;;;5.00;2.25;;;;;;;;5093317;27;47036;-69
2022/07/10 06:15:56;;;;;;;;;2.75;2.75;;;;;;;;5093277;27;45563;-69
2022/07/10 06:18:21;;;;;;;;;2.00;2.00;;;;;;;;5093549;27;45525;-69
2022/07/10 06:20:46;;;;;;;;;2.00;2.00;;;;;;;;5096126;27;45386;-68
2022/07/10 06:23:11;;;;;;;;;1.67;1.67;;;;;;;;5094062;27;45390;-68
2022/07/10 06:25:37;;;;;;;;;2.75;2.75;;;;;;;;5092717;27;48947;-70
2022/07/10 06:28:02;;;;;;;;;1.33;1.33;;;;;;;;5094309;27;45518;-69
2022/07/10 06:30:27;;;;;;;;;3.33;3.33;;;;;;;;5106996;27;45295;-69
2022/07/10 06:32:52;;;;;;;;;4.00;3.00;;;;;;;;5107542;27;45879;-68
2022/07/10 06:35:17;;;;;;;;;2.00;2.00;;;;;;;;5094281;27;45472;-68
2022/07/10 06:37:43;;;;;;;;;4.00;2.50;;;;;;;;5093032;27;45532;-68
2022/07/10 06:40:11;;;;;;;;;3.33;3.33;;;;;;;;5093046;27;45450;-67
2022/07/10 06:42:36;;;;;;;;;2.67;2.67;;;;;;;;5093123;27;45507;-67
2022/07/10 06:45:01;;;;;;;;;2.00;2.00;;;;;;;;5094217;27;45276;-68
2022/07/10 06:50:11;;;;;;;;;4.00;3.00;;;;;;;;5093900;27;45515;-68
2022/07/10 06:52:36;;;;;;;;;2.00;2.00;;;;;;;;5092516;27;47052;-68
2022/07/10 06:55:01;;;;;;;;;2.67;2.67;;;;;;;;5092741;27;45540;-68
2022/07/10 06:57:27;;;;;;;;;1.00;1.00;;;;;;;;5092951;27;45518;-68
2022/07/10 06:59:52;;;;;;;;;2.67;1.33;;;;;;;;5095104;27;45307;-68
2022/07/10 07:02:18;;;;;;;;;1.00;1.00;;;;;;;;5093939;27;46582;-67
2022/07/10 07:04:45;;;;;;;;;2.67;2.33;;;;;;;;5092418;27;45292;-68
2022/07/10 07:07:10;;;;;;;;;5.33;2.00;;;;;;;;5092720;27;45458;-68
2022/07/10 07:09:36;;;;;;;;;2.00;2.00;;;;;;;;5092404;27;45547;-68
2022/07/10 07:12:01;;;;;;;;;3.00;2.00;;;;;;;;5093575;27;46286;-68
2022/07/10 07:14:26;;;;;;;;;3.00;2.00;;;;;;;;5094732;27;45275;-68
2022/07/10 07:17:00;;;;;;;;;3.33;1.67;;;;;;;;5092697;27;45237;-68
2022/07/10 07:19:31;;;;;;;;;2.00;1.67;;;;;;;;5092547;27;45425;-69
2022/07/10 07:24:42;;;;;;;;;2.00;2.00;;;;;;;;5091962;27;45401;-69
2022/07/10 07:27:07;;;;;;;;;2.00;2.00;;;;;;;;5092788;27;45520;-68
2022/07/10 07:29:32;;;;;;;;;3.67;2.00;;;;;;;;5109731;27;45589;-69
2022/07/10 07:31:58;;;;;;;;;3.33;3.00;;;;;;;;5098520;27;46456;-68
2022/07/10 07:34:24;;;;;;;;;2.67;2.67;;;;;;;;5097727;27;45331;-68
2022/07/10 07:36:49;;;;;;;;;3.33;2.00;;;;;;;;5092320;27;45464;-68
2022/07/10 07:39:14;;;;;;;;;2.00;2.00;;;;;;;;5092057;27;45294;-68
2022/07/10 07:41:39;;;;;;;;;2.33;2.00;;;;;;;;5095855;27;45288;-67
2022/07/10 07:44:05;;;;;;;;;3.33;1.67;;;;;;;;5091901;27;45365;-68
2022/07/10 07:46:30;;;;;;;;;1.33;1.33;;;;;;;;5094001;27;45353;-68
2022/07/10 07:48:55;;;;;;;;;2.00;2.00;;;;;;;;5092108;27;45330;-68
2022/07/10 07:51:20;;;;;;;;;1.00;0.67;;;;;;;;5092044;27;46422;-68
2022/07/10 07:53:45;;;;;;;;;1.00;1.00;;;;;;;;5094220;27;45436;-68
2022/07/10 07:56:11;;;;;;;;;2.00;2.00;;;;;;;;5092974;27;45366;-68
2022/07/10 07:58:36;;;;;;;;;1.67;1.67;;;;;;;;5091672;27;45161;-68
2022/07/10 08:01:02;;;;;;;;;1.00;1.00;;;;;;;;5091958;27;45491;-69
2022/07/10 08:03:27;;;;;;;;;2.00;2.00;;;;;;;;5092027;27;45234;-68
2022/07/10 08:05:52;;;;;;;;;1.00;1.00;;;;;;;;5094209;27;45278;-68
2022/07/10 08:08:17;;;;;;;;;0.00;0.00;;;;;;;;5092993;27;45619;-69
2022/07/10 08:10:43;;;;;;;;;1.00;1.00;;;;;;;;5091548;27;47033;-68
2022/07/10 08:13:08;;;;;;;;;2.00;1.33;;;;;;;;5091676;27;45466;-68
2022/07/10 08:15:34;;;;;;;;;2.00;2.00;;;;;;;;5092086;27;45408;-69
2022/07/10 08:18:00;;;;;;;;;1.67;1.67;;;;;;;;5093444;27;45484;-70
2022/07/10 08:20:26;;;;;;;;;2.33;2.00;;;;;;;;5093627;27;47011;-69
2022/07/10 08:22:55;;;;;;;;;1.00;1.00;;;;;;;;5090873;27;45392;-69
2022/07/10 08:25:20;;;;;;;;;1.00;1.00;;;;;;;;5091694;27;45354;-69
2022/07/10 08:27:46;;;;;;;;;1.67;1.67;;;;;;;;5091030;27;45474;-69
2022/07/10 08:30:11;;;;;;;;;2.00;1.00;;;;;;;;5092395;27;46608;-69
2022/07/10 08:32:37;;;;;;;;;2.00;2.00;;;;;;;;5105194;27;46869;-69
2022/07/10 08:35:03;;;;;;;;;2.67;2.00;;;;;;;;5091851;27;45697;-69
2022/07/10 08:37:28;;;;;;;;;1.00;1.00;;;;;;;;5090982;27;45504;-69
2022/07/10 08:39:54;;;;;;;;;0.00;0.00;;;;;;;;5091427;27;45446;-69
2022/07/10 08:42:20;;;;;;;;;0.67;0.33;;;;;;;;5091506;27;45471;-69
2022/07/10 08:44:45;;;;;;;;;1.00;1.00;;;;;;;;5093579;27;45429;-69
2022/07/10 08:47:11;;;;;;;;;1.33;1.00;;;;;;;;5095569;27;45353;-69
2022/07/10 08:49:36;;;;;;;;;2.00;2.00;;;;;;;;5094527;27;46350;-69
2022/07/10 08:52:05;;;;;;;;;1.33;1.33;;;;;;;;5094445;27;45535;-69
2022/07/10 08:54:32;;;;;;;;;2.00;2.00;;;;;;;;5094835;27;48932;-69
2022/07/10 08:56:57;;;;;;;;;2.00;2.00;;;;;;;;5096988;27;45303;-69
2022/07/10 08:59:23;;;;;;;;;1.33;1.33;;;;;;;;5096121;27;46283;-69
2022/07/10 09:01:49;;;;;;;;;3.00;1.00;;;;;;;;5094087;27;45409;-69
2022/07/10 09:04:18;;;;;;;;;3.00;1.67;;;;;;;;5095013;27;45367;-69
2022/07/10 09:06:43;;;;;;;;;1.00;1.00;;;;;;;;5094395;27;45597;-69
2022/07/10 09:09:10;;;;;;;;;2.00;1.00;;;;;;;;5094624;27;46213;-69
2022/07/10 09:11:36;;;;;;;;;1.00;1.00;;;;;;;;5098070;27;45496;-69
2022/07/10 09:14:04;;;;;;;;;2.00;1.00;;;;;;;;5094344;27;45615;-69
2022/07/10 09:16:30;;;;;;;;;1.00;1.00;;;;;;;;5094203;27;45409;-69
2022/07/10 09:18:56;;;;;;;;;2.00;1.00;;;;;;;;5094278;27;46092;-69
2022/07/10 09:21:22;;;;;;;;;1.00;1.00;;;;;;;;5093877;27;45435;-69
2022/07/10 09:23:48;;;;;;;;;1.00;1.00;;;;;;;;5096956;27;45326;-69
2022/07/10 09:26:13;;;;;;;;;1.00;1.00;;;;;;;;5092796;27;45453;-70
2022/07/10 09:28:39;;;;;;;;;1.00;1.00;;;;;;;;5093688;27;45359;-71
2022/07/10 09:31:04;;;;;;;;;2.00;2.00;;;;;;;;5093845;27;45286;-71
2022/07/10 09:33:30;;;;;;;;;0.00;0.00;;;;;;;;5094336;27;45433;-71
2022/07/10 09:36:04;;;;;;;;;1.00;1.00;;;;;;;;5096063;27;45544;-70
2022/07/10 09:38:39;;;;;;;;;1.00;1.00;;;;;;;;5096386;27;46418;-70
2022/07/10 09:41:20;;;;;;;;;1.33;1.33;;;;;;;;5093420;27;45559;-70
2022/07/10 09:43:45;;;;;;;;;1.00;1.00;;;;;;;;5093857;27;45491;-71
2022/07/10 09:46:10;;;;;;;;;1.67;1.67;;;;;;;;5095375;27;45363;-70
2022/07/10 09:48:36;;;;;;;;;1.00;1.00;;;;;;;;5093353;27;45538;-71
2022/07/10 09:51:01;;;;;;;;;1.00;1.00;;;;;;;;5093535;27;45461;-71
2022/07/10 09:53:27;;;;;;;;;0.33;0.33;;;;;;;;5097523;27;45361;-70
2022/07/10 09:55:54;;;;;;;;;3.00;1.33;;;;;;;;5093225;27;45452;-71
2022/07/10 09:58:24;;;;;;;;;1.67;1.33;;;;;;;;5093097;27;45707;-71
2022/07/10 10:00:50;;;;;;;;;1.00;1.00;;;;;;;;5093226;27;45510;-71
2022/07/10 10:03:17;;;;;;;;;2.33;1.00;;;;;;;;5093389;27;45588;-70
2022/07/10 10:05:44;;;;;;;;;1.00;1.00;;;;;;;;5096782;27;45498;-71
2022/07/10 10:08:16;;;;;;;;;2.00;2.00;;;;;;;;5093750;27;46815;-71
2022/07/10 10:10:45;;;;;;;;;4.00;2.33;;;;;;;;5092986;27;45438;-71
2022/07/10 10:13:11;;;;;;;;;0.00;0.00;;;;;;;;5094553;27;45317;-70
2022/07/10 10:15:37;;;;;;;;;1.00;1.00;;;;;;;;5093235;27;45445;-71
2022/07/10 10:18:02;;;;;;;;;0.67;0.67;;;;;;;;5094135;27;45423;-71
2022/07/10 10:20:37;;;;;;;;;2.00;1.67;;;;;;;;5095727;27;45188;-71
2022/07/10 10:23:04;;;;;;;;;2.33;1.33;;;;;;;;5094749;27;45587;-71
2022/07/10 10:25:31;;;;;;;;;3.00;1.00;;;;;;;;5092994;27;45372;-70
2022/07/10 10:27:57;;;;;;;;;1.00;1.00;;;;;;;;5092900;27;45579;-71
2022/07/10 10:30:22;;;;;;;;;1.00;1.00;;;;;;;;5093059;27;45495;-71
2022/07/10 10:32:48;;;;;;;;;1.67;1.00;;;;;;;;5093842;27;45305;-71
2022/07/10 10:35:33;;;;;;;;;1.00;1.00;;;;;;;;5094063;27;45265;-71
2022/07/10 10:37:58;;;;;;;;;3.67;1.67;;;;;;;;5093706;27;45662;-71
2022/07/10 10:40:31;;;;;;;;;1.00;1.00;;;;;;;;5099865;27;45249;-71
2022/07/10 10:42:58;;;;;;;;;1.00;1.00;;;;;;;;5093492;27;45465;-71
2022/07/10 10:45:24;;;;;;;;;2.67;2.00;;;;;;;;5092951;27;45586;-71
2022/07/10 10:48:12;;;;;;;;;1.00;1.00;;;;;;;;5094281;27;46153;-69
2022/07/10 10:50:40;;;;;;;;;1.00;1.00;;;;;;;;5098247;27;45662;-72
2022/07/10 10:53:15;;;;;;;;;0.33;0.33;;;;;;;;5092447;27;45322;-73
2022/07/10 10:55:41;;;;;;;;;0.00;0.00;;;;;;;;5091664;27;45472;-71
2022/07/10 10:58:17;;;;;;;;;1.00;1.00;;;;;;;;5092057;27;47180;-70
2022/07/10 11:00:43;;;;;;;;;2.00;1.00;;;;;;;;5094373;27;45490;-70
2022/07/10 11:03:12;;;;;;;;;0.00;0.00;;;;;;;;5092731;27;45441;-71
2022/07/10 11:05:38;;;;;;;;;1.00;1.00;;;;;;;;5092221;27;45501;-70
2022/07/10 11:08:04;;;;;;;;;1.33;1.33;;;;;;;;5091087;27;46076;-70
2022/07/10 11:10:30;;;;;;;;;0.67;0.67;;;;;;;;5092195;27;45630;-71
2022/07/10 11:13:02;;;;;;;;;1.00;1.00;;;;;;;;5092399;27;45441;-71
2022/07/10 11:15:32;;;;;;;;;2.00;2.00;;;;;;;;5092290;27;45544;-71
2022/07/10 11:18:07;;;;;;;;;1.00;1.00;;;;;;;;5094075;27;46364;-71
2022/07/10 11:20:34;;;;;;;;;1.00;1.00;;;;;;;;5095227;27;45456;-71
2022/07/10 11:23:00;;;;;;;;;0.67;0.67;;;;;;;;5092080;27;45639;-70
2022/07/10 11:25:44;;;;;;;;;0.67;0.67;;;;;;;;5093305;27;45591;-71
2022/07/10 11:28:11;;;;;;;;;1.00;1.00;;;;;;;;5094011;27;46509;-70
2022/07/10 11:30:50;;;;;;;;;1.33;1.00;;;;;;;;5091824;27;45797;-72
2022/07/10 11:33:16;;;;;;;;;1.00;1.00;;;;;;;;5087563;27;45385;-70
2022/07/10 11:35:45;;;;;;;;;0.00;0.00;;;;;;;;5096034;27;45398;-70
2022/07/10 11:38:10;;;;;;;;;2.67;2.00;;;;;;;;5092463;27;45600;-70
2022/07/10 11:40:36;;;;;;;;;1.33;1.33;;;;;;;;5091767;27;45587;-70
2022/07/10 11:43:04;;;;;;;;;0.00;0.00;;;;;;;;5090351;27;45594;-69
2022/07/10 11:45:30;;;;;;;;;1.00;1.00;;;;;;;;5091202;27;45524;-70
2022/07/10 11:47:56;;;;;;;;;1.00;1.00;;;;;;;;5093554;27;46373;-70
2022/07/10 11:50:22;;;;;;;;;3.00;1.00;;;;;;;;5092673;27;45434;-70
2022/07/10 11:52:47;;;;;;;;;1.00;1.00;;;;;;;;5091823;27;45342;-69
2022/07/10 11:55:16;;;;;;;;;1.00;1.00;;;;;;;;5091554;27;45390;-70
2022/07/10 11:57:42;;;;;;;;;1.00;1.00;;;;;;;;5091481;27;45372;-70
2022/07/10 12:00:20;;;;;;;;;1.33;1.33;;;;;;;;5091486;27;45381;-71
2022/07/10 12:02:45;;;;;;;;;1.00;1.00;;;;;;;;5091272;27;45386;-70
2022/07/10 12:05:29;;;;;;;;;1.00;1.00;;;;;;;;5091817;27;45525;-70
2022/07/10 12:07:54;;;;;;;;;2.00;1.00;;;;;;;;5091135;27;45663;-69
2022/07/10 12:10:20;;;;;;;;;2.33;2.00;;;;;;;;5091329;27;45391;-69
2022/07/10 12:12:45;;;;;;;;;1.00;1.00;;;;;;;;5091661;27;45357;-69
2022/07/10 12:15:29;;;;;;;;;1.67;1.67;;;;;;;;5091347;27;45386;-70
2022/07/10 12:17:55;;;;;;;;;1.00;1.00;;;;;;;;5091546;27;46351;-69
2022/07/10 12:20:20;;;;;;;;;0.67;0.67;;;;;;;;5095517;27;45718;-69
2022/07/10 12:22:45;;;;;;;;;1.00;1.00;;;;;;;;5096398;27;45377;-68
2022/07/10 12:25:10;;;;;;;;;3.00;1.67;;;;;;;;5094873;27;45511;-69
2022/07/10 12:27:38;;;;;;;;;1.00;1.00;;;;;;;;5094239;27;46115;-70
2022/07/10 12:30:04;;;;;;;;;0.00;0.00;;;;;;;;5095606;27;45474;-69
2022/07/10 12:32:29;;;;;;;;;2.00;0.67;;;;;;;;5097137;27;45275;-69
2022/07/10 12:34:58;;;;;;;;;0.67;0.67;;;;;;;;5094458;27;45621;-69
2022/07/10 12:37:23;;;;;;;;;1.00;0.67;;;;;;;;5094358;27;46536;-69
2022/07/10 12:39:53;;;;;;;;;1.00;1.00;;;;;;;;5093960;27;45788;-69
2022/07/10 12:42:44;;;;;;;;;0.67;0.67;;;;;;;;5094517;27;45638;-69
2022/07/10 12:45:10;;;;;;;;;2.00;2.00;;;;;;;;5088268;27;45562;-70
2022/07/10 12:47:48;;;;;;;;;0.00;0.00;;;;;;;;5098018;27;45456;-69
2022/07/10 12:50:14;;;;;;;;;1.00;1.00;;;;;;;;5095420;27;45364;-69
2022/07/10 12:52:39;;;;;;;;;1.00;1.00;;;;;;;;5093836;27;45504;-69
2022/07/10 12:55:15;;;;;;;;;1.33;1.00;;;;;;;;5095803;27;45603;-69
2022/07/10 12:57:46;;;;;;;;;1.00;1.00;;;;;;;;5093852;27;45317;-69
2022/07/10 13:00:13;;;;;;;;;0.33;0.33;;;;;;;;5088749;27;45366;-69
2022/07/10 13:02:38;;;;;;;;;1.00;1.00;;;;;;;;5093253;27;45374;-69
2022/07/10 13:05:04;;;;;;;;;1.00;1.00;;;;;;;;5093886;27;45275;-70
2022/07/10 13:07:30;;;;;;;;;1.00;1.00;;;;;;;;5093645;27;45463;-69
2022/07/10 13:09:55;;;;;;;;;1.00;0.00;;;;;;;;5093832;27;45254;-69
2022/07/10 13:12:21;;;;;;;;;1.67;1.00;;;;;;;;5093574;27;45902;-69
2022/07/10 13:14:46;;;;;;;;;0.00;0.00;;;;;;;;5097450;27;45424;-69
2022/07/10 13:17:11;;;;;;;;;2.33;1.67;;;;;;;;5094166;27;45461;-69
2022/07/10 13:19:37;;;;;;;;;1.67;1.00;;;;;;;;5093780;27;45443;-69
2022/07/10 13:22:02;;;;;;;;;1.00;1.00;;;;;;;;5093961;27;45590;-69
2022/07/10 13:24:27;;;;;;;;;1.00;1.00;;;;;;;;5093852;27;45507;-70
2022/07/10 13:26:55;;;;;;;;;2.00;2.00;;;;;;;;5095597;27;46581;-70
2022/07/10 13:29:20;;;;;;;;;3.00;2.00;;;;;;;;5094883;27;45455;-69
2022/07/10 13:31:45;;;;;;;;;1.00;1.00;;;;;;;;5092865;27;45373;-69
2022/07/10 13:34:11;;;;;;;;;1.00;1.00;;;;;;;;5093223;27;45352;-69
2022/07/10 13:36:36;;;;;;;;;1.00;1.00;;;;;;;;5093553;27;45652;-69
2022/07/10 13:39:02;;;;;;;;;0.33;0.33;;;;;;;;5095429;27;45366;-69
2022/07/10 13:41:27;;;;;;;;;2.00;2.00;;;;;;;;5095286;27;45360;-69
2022/07/10 13:43:52;;;;;;;;;0.00;0.00;;;;;;;;5093565;27;45337;-69
2022/07/10 13:46:17;;;;;;;;;0.00;0.00;;;;;;;;5093326;27;45380;-70
2022/07/10 13:48:43;;;;;;;;;0.67;0.67;;;;;;;;5093464;27;45384;-70
2022/07/10 13:51:08;;;;;;;;;1.00;1.00;;;;;;;;5093817;27;45354;-70
2022/07/10 13:53:33;;;;;;;;;1.33;1.33;;;;;;;;5096424;27;45344;-69
2022/07/10 13:55:59;;;;;;;;;0.67;0.67;;;;;;;;5092695;27;45427;-69
2022/07/10 13:58:24;;;;;;;;;1.00;1.00;;;;;;;;5092605;27;45591;-69
2022/07/10 14:00:49;;;;;;;;;1.00;1.00;;;;;;;;5093115;27;45510;-70
2022/07/10 14:03:15;;;;;;;;;1.33;1.33;;;;;;;;5092995;27;45338;-70
2022/07/10 14:05:40;;;;;;;;;0.33;0.33;;;;;;;;5096794;27;45386;-71
2022/07/10 14:08:05;;;;;;;;;1.00;1.00;;;;;;;;5092831;27;45469;-71
2022/07/10 14:10:31;;;;;;;;;0.00;0.00;;;;;;;;5092365;27;45362;-71
2022/07/10 14:12:56;;;;;;;;;1.00;1.00;;;;;;;;5093076;27;45426;-70
2022/07/10 14:15:21;;;;;;;;;1.00;1.00;;;;;;;;5093011;27;46268;-70
2022/07/10 14:17:46;;;;;;;;;1.00;0.00;;;;;;;;5095711;27;45331;-71
2022/07/10 14:20:12;;;;;;;;;2.00;1.00;;;;;;;;5093694;27;45479;-71
2022/07/10 14:22:37;;;;;;;;;1.33;1.00;;;;;;;;5093065;27;45286;-71
2022/07/10 14:25:06;;;;;;;;;1.33;1.00;;;;;;;;5092410;27;47969;-71
2022/07/10 14:27:31;;;;;;;;;2.00;0.67;;;;;;;;5092873;27;45464;-71
2022/07/10 14:29:57;;;;;;;;;1.67;1.00;;;;;;;;5094952;27;45410;-70
2022/07/10 14:32:22;;;;;;;;;2.00;2.00;;;;;;;;5094060;27;45688;-71
2022/07/10 14:34:47;;;;;;;;;1.00;1.00;;;;;;;;5092577;27;46192;-70
2022/07/10 14:37:12;;;;;;;;;4.00;2.00;;;;;;;;5092074;27;45452;-71
2022/07/10 14:39:38;;;;;;;;;2.00;2.00;;;;;;;;5092865;27;46727;-71
2022/07/10 14:42:04;;;;;;;;;0.67;0.67;;;;;;;;5093951;27;46059;-71
2022/07/10 14:44:30;;;;;;;;;1.00;1.00;;;;;;;;5094947;27;46499;-71
2022/07/10 14:46:55;;;;;;;;;1.00;1.00;;;;;;;;5093910;27;45388;-70
2022/07/10 14:49:20;;;;;;;;;1.00;1.00;;;;;;;;5092735;27;45252;-71